createdAt,value
2018-08-03T00:00:15.011Z,0.00
2018-08-03T00:01:15.038Z,0.00
2018-08-03T00:02:14.973Z,0.00
2018-08-03T00:03:14.955Z,0.00
2018-08-03T00:04:14.932Z,0.00
2018-08-03T00:05:14.908Z,0.00
2018-08-03T00:06:14.930Z,0.00
2018-08-03T00:07:14.871Z,0.00
2018-08-03T00:08:14.847Z,0.00
2018-08-03T00:09:14.827Z,0.00
2018-08-03T00:10:14.847Z,0.00
2018-08-03T00:11:14.780Z,0.00
2018-08-03T00:12:14.757Z,0.00
2018-08-03T00:13:14.745Z,0.00
2018-08-03T00:14:14.713Z,0.00
2018-08-03T00:15:14.758Z,0.00
2018-08-03T00:16:14.717Z,0.00
2018-08-03T00:17:14.693Z,0.00
2018-08-03T00:18:14.629Z,0.00
2018-08-03T00:19:14.612Z,0.00
2018-08-03T00:20:14.586Z,0.00
2018-08-03T00:21:15.304Z,0.00
2018-08-03T00:22:14.585Z,0.00
2018-08-03T00:23:14.523Z,0.00
2018-08-03T00:24:14.520Z,0.00
2018-08-03T00:25:14.573Z,0.00
2018-08-03T00:26:14.454Z,0.00
2018-08-03T00:27:14.438Z,0.00
2018-08-03T00:28:14.415Z,0.00
2018-08-03T00:29:14.392Z,0.00
2018-08-03T00:30:14.419Z,0.00
2018-08-03T00:31:14.352Z,0.00
2018-08-03T00:32:14.326Z,0.00
2018-08-03T00:33:14.315Z,0.00
2018-08-03T00:34:14.288Z,0.00
2018-08-03T00:35:14.319Z,0.00
2018-08-03T00:36:14.243Z,0.00
2018-08-03T00:37:14.230Z,0.00
2018-08-03T00:38:14.262Z,0.00
2018-08-03T00:39:14.179Z,0.00
2018-08-03T00:40:14.159Z,0.00
2018-08-03T00:41:14.133Z,0.00
2018-08-03T00:42:14.114Z,0.00
2018-08-03T00:43:14.141Z,0.00
2018-08-03T00:44:14.112Z,0.00
2018-08-03T00:45:14.047Z,0.00
2018-08-03T00:46:14.034Z,0.00
2018-08-03T00:47:14.010Z,0.00
2018-08-03T00:48:14.030Z,0.00
2018-08-03T00:49:13.958Z,0.00
2018-08-03T00:50:13.939Z,0.00
2018-08-03T00:51:13.931Z,0.00
2018-08-03T00:52:13.899Z,0.00
2018-08-03T00:53:13.948Z,0.00
2018-08-03T00:54:13.863Z,0.00
2018-08-03T00:55:13.857Z,0.00
2018-08-03T00:56:13.813Z,0.00
2018-08-03T00:57:13.787Z,0.00
2018-08-03T00:58:13.832Z,0.00
2018-08-03T00:59:13.744Z,0.00
2018-08-03T01:00:13.722Z,0.00
2018-08-03T01:01:13.701Z,0.00
2018-08-03T01:02:13.734Z,0.00
2018-08-03T01:03:13.659Z,0.00
2018-08-03T01:04:13.636Z,0.00
2018-08-03T01:05:13.620Z,0.00
2018-08-03T01:06:13.595Z,0.00
2018-08-03T01:07:13.627Z,0.00
2018-08-03T01:08:13.551Z,0.00
2018-08-03T01:09:13.544Z,0.00
2018-08-03T01:10:13.553Z,0.00
2018-08-03T01:11:13.530Z,0.00
2018-08-03T01:12:13.463Z,0.00
2018-08-03T01:13:13.440Z,0.00
2018-08-03T01:14:13.425Z,0.00
2018-08-03T01:15:13.403Z,0.00
2018-08-03T01:16:13.423Z,0.00
2018-08-03T01:17:13.403Z,0.00
2018-08-03T01:18:13.350Z,0.00
2018-08-03T01:19:13.353Z,0.00
2018-08-03T01:20:13.319Z,0.00
2018-08-03T01:21:13.378Z,0.00
2018-08-03T01:22:13.299Z,0.00
2018-08-03T01:23:13.225Z,0.00
2018-08-03T01:24:13.226Z,0.00
2018-08-03T01:25:13.193Z,0.00
2018-08-03T01:26:13.164Z,0.00
2018-08-03T01:27:13.185Z,0.00
2018-08-03T01:28:13.819Z,0.00
2018-08-03T01:29:13.101Z,0.00
2018-08-03T01:30:13.078Z,0.00
2018-08-03T01:31:13.104Z,0.00
2018-08-03T01:32:13.052Z,0.00
2018-08-03T01:33:13.022Z,0.00
2018-08-03T01:34:12.992Z,0.00
2018-08-03T01:35:12.963Z,0.00
2018-08-03T01:36:12.999Z,0.00
2018-08-03T01:37:12.919Z,0.00
2018-08-03T01:38:12.941Z,0.00
2018-08-03T01:39:12.889Z,0.00
2018-08-03T01:40:13.386Z,0.00
2018-08-03T01:41:12.838Z,0.00
2018-08-03T01:42:12.815Z,0.00
2018-08-03T01:43:12.854Z,0.00
2018-08-03T01:44:13.324Z,0.00
2018-08-03T01:45:12.746Z,0.00
2018-08-03T01:46:12.728Z,0.00
2018-08-03T01:47:12.711Z,0.00
2018-08-03T01:48:12.740Z,0.00
2018-08-03T01:49:12.651Z,0.00
2018-08-03T01:50:12.640Z,0.00
2018-08-03T01:51:12.613Z,0.00
2018-08-03T01:52:12.593Z,0.00
2018-08-03T01:53:12.623Z,0.00
2018-08-03T01:54:12.545Z,0.00
2018-08-03T01:55:12.532Z,0.00
2018-08-03T01:56:12.503Z,0.00
2018-08-03T01:57:12.542Z,0.00
2018-08-03T01:58:12.458Z,0.00
2018-08-03T01:59:12.469Z,0.00
2018-08-03T02:00:12.419Z,0.00
2018-08-03T02:01:12.393Z,0.00
2018-08-03T02:02:12.893Z,0.00
2018-08-03T02:03:12.362Z,0.00
2018-08-03T02:04:12.348Z,0.00
2018-08-03T02:05:12.300Z,0.00
2018-08-03T02:06:12.290Z,0.00
2018-08-03T02:07:12.306Z,0.00
2018-08-03T02:08:12.286Z,0.00
2018-08-03T02:09:12.215Z,0.00
2018-08-03T02:10:12.838Z,0.00
2018-08-03T02:11:12.173Z,0.00
2018-08-03T02:12:12.845Z,0.00
2018-08-03T02:13:12.170Z,0.00
2018-08-03T02:14:12.401Z,0.00
2018-08-03T02:15:12.126Z,0.00
2018-08-03T02:16:12.847Z,0.00
2018-08-03T02:17:12.035Z,0.00
2018-08-03T02:18:12.010Z,0.00
2018-08-03T02:19:12.039Z,0.00
2018-08-03T02:20:12.836Z,0.00
2018-08-03T02:21:11.945Z,0.00
2018-08-03T02:22:12.837Z,0.00
2018-08-03T02:23:11.903Z,0.00
2018-08-03T02:24:11.924Z,0.00
2018-08-03T02:25:12.838Z,0.00
2018-08-03T02:26:11.833Z,0.00
2018-08-03T02:27:11.827Z,0.00
2018-08-03T02:28:12.341Z,0.00
2018-08-03T02:29:11.849Z,0.00
2018-08-03T02:30:11.746Z,0.00
2018-08-03T02:31:12.334Z,0.00
2018-08-03T02:32:11.701Z,0.00
2018-08-03T02:33:11.679Z,0.00
2018-08-03T02:34:11.733Z,0.00
2018-08-03T02:35:12.337Z,0.00
2018-08-03T02:36:11.607Z,0.00
2018-08-03T02:37:12.343Z,0.00
2018-08-03T02:38:11.564Z,0.00
2018-08-03T02:39:11.583Z,0.00
2018-08-03T02:40:11.889Z,0.00
2018-08-03T02:41:11.545Z,0.00
2018-08-03T02:42:11.473Z,0.00
2018-08-03T02:43:11.449Z,0.00
2018-08-03T02:44:12.338Z,0.00
2018-08-03T02:45:11.405Z,0.00
2018-08-03T02:46:11.884Z,0.00
2018-08-03T02:47:11.359Z,0.00
2018-08-03T02:48:11.337Z,0.00
2018-08-03T02:49:11.318Z,0.00
2018-08-03T02:50:11.404Z,0.00
2018-08-03T02:51:11.274Z,0.00
2018-08-03T02:52:11.858Z,4.00
2018-08-03T02:53:11.230Z,4.00
2018-08-03T02:54:11.836Z,4.00
2018-08-03T02:55:11.228Z,4.00
2018-08-03T02:56:11.394Z,4.00
2018-08-03T02:57:11.190Z,4.00
2018-08-03T02:58:11.867Z,4.00
2018-08-03T02:59:11.102Z,4.00
2018-08-03T03:00:11.081Z,8.00
2018-08-03T03:01:11.163Z,8.00
2018-08-03T03:02:11.846Z,8.00
2018-08-03T03:03:11.020Z,12.00
2018-08-03T03:04:10.997Z,12.00
2018-08-03T03:05:10.972Z,16.00
2018-08-03T03:06:11.404Z,16.00
2018-08-03T03:07:10.919Z,20.00
2018-08-03T03:08:10.900Z,20.00
2018-08-03T03:09:10.879Z,24.00
2018-08-03T03:10:11.844Z,28.00
2018-08-03T03:11:10.877Z,28.00
2018-08-03T03:12:10.912Z,32.00
2018-08-03T03:13:10.789Z,36.00
2018-08-03T03:14:10.902Z,40.00
2018-08-03T03:15:10.747Z,48.00
2018-08-03T03:16:10.901Z,52.00
2018-08-03T03:17:10.702Z,56.00
2018-08-03T03:18:10.685Z,64.00
2018-08-03T03:19:10.661Z,72.00
2018-08-03T03:20:10.919Z,80.00
2018-08-03T03:21:10.614Z,88.00
2018-08-03T03:22:11.367Z,100.00
2018-08-03T03:23:10.577Z,112.00
2018-08-03T03:24:11.356Z,124.00
2018-08-03T03:25:10.573Z,136.00
2018-08-03T03:26:10.902Z,152.00
2018-08-03T03:27:10.541Z,168.00
2018-08-03T03:28:10.463Z,184.00
2018-08-03T03:29:11.351Z,200.00
2018-08-03T03:30:10.423Z,212.00
2018-08-03T03:31:11.351Z,232.00
2018-08-03T03:32:10.435Z,252.00
2018-08-03T03:33:10.354Z,268.00
2018-08-03T03:34:10.326Z,288.00
2018-08-03T03:35:10.850Z,308.00
2018-08-03T03:36:10.282Z,324.00
2018-08-03T03:37:10.406Z,344.00
2018-08-03T03:38:10.255Z,360.00
2018-08-03T03:39:10.218Z,372.00
2018-08-03T03:40:10.855Z,388.00
2018-08-03T03:41:10.229Z,404.00
2018-08-03T03:42:10.876Z,424.00
2018-08-03T03:43:10.131Z,452.00
2018-08-03T03:44:10.102Z,480.00
2018-08-03T03:45:10.851Z,504.00
2018-08-03T03:46:10.119Z,520.00
2018-08-03T03:47:10.042Z,540.00
2018-08-03T03:48:10.852Z,560.00
2018-08-03T03:49:09.992Z,584.00
2018-08-03T03:50:10.853Z,616.00
2018-08-03T03:51:09.995Z,656.00
2018-08-03T03:52:09.971Z,700.00
2018-08-03T03:53:10.856Z,752.00
2018-08-03T03:54:09.884Z,808.00
2018-08-03T03:55:10.854Z,872.00
2018-08-03T03:56:09.848Z,932.00
2018-08-03T03:57:09.911Z,1000.00
2018-08-03T03:58:09.797Z,1068.00
2018-08-03T03:59:10.370Z,1140.00
2018-08-03T04:00:09.797Z,1212.00
2018-08-03T04:01:10.353Z,1284.00
2018-08-03T04:02:09.716Z,1352.00
2018-08-03T04:03:09.689Z,1428.00
2018-08-03T04:04:09.672Z,1508.00
2018-08-03T04:05:09.914Z,1584.00
2018-08-03T04:06:09.622Z,1652.00
2018-08-03T04:07:10.358Z,1728.00
2018-08-03T04:08:09.579Z,1804.00
2018-08-03T04:09:09.561Z,1864.00
2018-08-03T04:10:09.912Z,1924.00
2018-08-03T04:11:09.516Z,2000.00
2018-08-03T04:12:10.385Z,2088.00
2018-08-03T04:13:09.474Z,2192.00
2018-08-03T04:14:09.928Z,2336.00
2018-08-03T04:15:09.429Z,2448.00
2018-08-03T04:16:10.359Z,2552.00
2018-08-03T04:17:09.382Z,2648.00
2018-08-03T04:18:09.405Z,2748.00
2018-08-03T04:19:09.346Z,2856.00
2018-08-03T04:20:09.366Z,2960.00
2018-08-03T04:21:09.868Z,3064.00
2018-08-03T04:22:09.276Z,3180.00
2018-08-03T04:23:09.416Z,3260.00
2018-08-03T04:24:09.230Z,3324.00
2018-08-03T04:25:09.866Z,3404.00
2018-08-03T04:26:09.188Z,3492.00
2018-08-03T04:27:09.209Z,3588.00
2018-08-03T04:28:09.409Z,3672.00
2018-08-03T04:29:09.165Z,3748.00
2018-08-03T04:30:09.867Z,3840.00
2018-08-03T04:31:09.081Z,3944.00
2018-08-03T04:32:09.864Z,4020.00
2018-08-03T04:33:09.090Z,4112.00
2018-08-03T04:34:09.029Z,4200.00
2018-08-03T04:35:08.992Z,4288.00
2018-08-03T04:36:09.867Z,4372.00
2018-08-03T04:37:08.992Z,4456.00
2018-08-03T04:38:09.865Z,4536.00
2018-08-03T04:39:09.866Z,4612.00
2018-08-03T04:40:09.427Z,4700.00
2018-08-03T04:41:08.861Z,4796.00
2018-08-03T04:42:09.430Z,4896.00
2018-08-03T04:43:08.855Z,4992.00
2018-08-03T04:44:08.791Z,5076.00
2018-08-03T04:45:08.921Z,5140.00
2018-08-03T04:46:08.748Z,5192.00
2018-08-03T04:47:09.370Z,5240.00
2018-08-03T04:48:08.706Z,5288.00
2018-08-03T04:49:08.769Z,5352.00
2018-08-03T04:50:08.661Z,5428.00
2018-08-03T04:51:08.694Z,5528.00
2018-08-03T04:52:09.367Z,5624.00
2018-08-03T04:53:08.602Z,5720.00
2018-08-03T04:54:09.374Z,5808.00
2018-08-03T04:55:08.555Z,5884.00
2018-08-03T04:56:08.924Z,5944.00
2018-08-03T04:57:08.510Z,5992.00
2018-08-03T04:58:09.369Z,6012.00
2018-08-03T04:59:08.476Z,6036.00
2018-08-03T05:00:09.375Z,6040.00
2018-08-03T05:01:08.474Z,6028.00
2018-08-03T05:02:09.369Z,6020.00
2018-08-03T05:03:08.394Z,6016.00
2018-08-03T05:04:08.367Z,6032.00
2018-08-03T05:05:08.870Z,6044.00
2018-08-03T05:06:08.365Z,6084.00
2018-08-03T05:07:08.885Z,6168.00
2018-08-03T05:08:08.277Z,6220.00
2018-08-03T05:09:08.870Z,6172.00
2018-08-03T05:10:08.286Z,6260.00
2018-08-03T05:11:08.874Z,6344.00
2018-08-03T05:12:08.242Z,6488.00
2018-08-03T05:13:08.426Z,6632.00
2018-08-03T05:14:08.162Z,6936.00
2018-08-03T05:15:08.875Z,7332.00
2018-08-03T05:16:08.112Z,7572.00
2018-08-03T05:17:08.434Z,7716.00
2018-08-03T05:18:08.077Z,7800.00
2018-08-03T05:19:08.067Z,7760.00
2018-08-03T05:20:08.429Z,7672.00
2018-08-03T05:21:08.011Z,7632.00
2018-08-03T05:22:08.878Z,7568.00
2018-08-03T05:23:07.977Z,7464.00
2018-08-03T05:24:08.449Z,7344.00
2018-08-03T05:25:07.961Z,7296.00
2018-08-03T05:26:08.432Z,7688.00
2018-08-03T05:27:07.878Z,8472.00
2018-08-03T05:28:08.378Z,8576.00
2018-08-03T05:29:07.835Z,9308.00
2018-08-03T05:30:08.382Z,9240.00
2018-08-03T05:31:07.842Z,8780.00
2018-08-03T05:32:08.378Z,8996.00
2018-08-03T05:33:07.752Z,8840.00
2018-08-03T05:34:07.737Z,8524.00
2018-08-03T05:35:08.379Z,8516.00
2018-08-03T05:36:07.780Z,8772.00
2018-08-03T05:37:08.390Z,8444.00
2018-08-03T05:38:07.705Z,8496.00
2018-08-03T05:39:08.380Z,8304.00
2018-08-03T05:40:07.625Z,8104.00
2018-08-03T05:41:08.383Z,7932.00
2018-08-03T05:42:07.618Z,7816.00
2018-08-03T05:43:08.380Z,7712.00
2018-08-03T05:44:07.538Z,7608.00
2018-08-03T05:45:07.513Z,7520.00
2018-08-03T05:46:07.937Z,7456.00
2018-08-03T05:47:07.472Z,7404.00
2018-08-03T05:48:07.458Z,7400.00
2018-08-03T05:49:07.440Z,7448.00
2018-08-03T05:50:07.422Z,7516.00
2018-08-03T05:51:07.959Z,7584.00
2018-08-03T05:52:07.421Z,7648.00
2018-08-03T05:53:07.408Z,7672.00
2018-08-03T05:54:07.883Z,7688.00
2018-08-03T05:55:07.316Z,7696.00
2018-08-03T05:56:07.884Z,7728.00
2018-08-03T05:57:07.271Z,7792.00
2018-08-03T05:58:07.446Z,7888.00
2018-08-03T05:59:07.245Z,8004.00
2018-08-03T06:00:07.888Z,8124.00
2018-08-03T06:01:07.190Z,8224.00
2018-08-03T06:02:07.887Z,8292.00
2018-08-03T06:03:07.203Z,8336.00
2018-08-03T06:04:07.197Z,8380.00
2018-08-03T06:05:07.113Z,8436.00
2018-08-03T06:06:07.886Z,8512.00
2018-08-03T06:07:07.087Z,8612.00
2018-08-03T06:08:08.014Z,8716.00
2018-08-03T06:09:07.035Z,8808.00
2018-08-03T06:10:07.017Z,8904.00
2018-08-03T06:11:07.893Z,8992.00
2018-08-03T06:12:06.986Z,9092.00
2018-08-03T06:13:07.893Z,9240.00
2018-08-03T06:14:06.995Z,9576.00
2018-08-03T06:15:07.892Z,10180.00
2018-08-03T06:16:06.896Z,10864.00
2018-08-03T06:17:07.392Z,11312.00
2018-08-03T06:18:06.861Z,11448.00
2018-08-03T06:19:06.886Z,11328.00
2018-08-03T06:20:06.820Z,10924.00
2018-08-03T06:21:07.402Z,10480.00
2018-08-03T06:22:06.779Z,10104.00
2018-08-03T06:23:07.398Z,9828.00
2018-08-03T06:24:06.784Z,9588.00
2018-08-03T06:25:06.970Z,9472.00
2018-08-03T06:26:06.713Z,9428.00
2018-08-03T06:27:06.688Z,9432.00
2018-08-03T06:28:07.398Z,9312.00
2018-08-03T06:29:06.644Z,9068.00
2018-08-03T06:30:06.954Z,8844.00
2018-08-03T06:31:06.605Z,8688.00
2018-08-03T06:32:07.395Z,8568.00
2018-08-03T06:33:06.566Z,8572.00
2018-08-03T06:34:06.618Z,8556.00
2018-08-03T06:35:07.396Z,8560.00
2018-08-03T06:36:06.507Z,8600.00
2018-08-03T06:37:07.410Z,8644.00
2018-08-03T06:38:06.476Z,8688.00
2018-08-03T06:39:06.503Z,8716.00
2018-08-03T06:40:07.401Z,8732.00
2018-08-03T06:41:06.454Z,8720.00
2018-08-03T06:42:06.896Z,8680.00
2018-08-03T06:43:06.384Z,8632.00
2018-08-03T06:44:06.356Z,8564.00
2018-08-03T06:45:06.392Z,8480.00
2018-08-03T06:46:06.472Z,8372.00
2018-08-03T06:47:06.305Z,8248.00
2018-08-03T06:48:06.287Z,8144.00
2018-08-03T06:49:06.264Z,8040.00
2018-08-03T06:50:06.902Z,7964.00
2018-08-03T06:51:06.304Z,7904.00
2018-08-03T06:52:06.903Z,7844.00
2018-08-03T06:53:06.194Z,7800.00
2018-08-03T06:54:06.166Z,7736.00
2018-08-03T06:55:06.903Z,7656.00
2018-08-03T06:56:06.207Z,7572.00
2018-08-03T06:57:06.903Z,7504.00
2018-08-03T06:58:06.098Z,7444.00
2018-08-03T06:59:06.919Z,7416.00
2018-08-03T07:00:06.077Z,7408.00
2018-08-03T07:01:06.458Z,7416.00
2018-08-03T07:02:06.019Z,7436.00
2018-08-03T07:03:05.997Z,7436.00
2018-08-03T07:04:05.979Z,7436.00
2018-08-03T07:05:06.026Z,7412.00
2018-08-03T07:06:05.937Z,7364.00
2018-08-03T07:07:06.908Z,7312.00
2018-08-03T07:08:05.900Z,7252.00
2018-08-03T07:09:06.428Z,7204.00
2018-08-03T07:10:05.908Z,7152.00
2018-08-03T07:11:06.418Z,7100.00
2018-08-03T07:12:05.870Z,7056.00
2018-08-03T07:13:06.423Z,7008.00
2018-08-03T07:14:05.791Z,6972.00
2018-08-03T07:15:06.408Z,6940.00
2018-08-03T07:16:05.749Z,6924.00
2018-08-03T07:17:06.008Z,6904.00
2018-08-03T07:18:05.713Z,6888.00
2018-08-03T07:19:05.692Z,6876.00
2018-08-03T07:20:06.475Z,6864.00
2018-08-03T07:21:05.661Z,6852.00
2018-08-03T07:22:05.975Z,6828.00
2018-08-03T07:23:05.624Z,6792.00
2018-08-03T07:24:06.414Z,6756.00
2018-08-03T07:25:05.590Z,6716.00
2018-08-03T07:26:06.417Z,6688.00
2018-08-03T07:27:05.593Z,6668.00
2018-08-03T07:28:06.418Z,6648.00
2018-08-03T07:29:05.502Z,6636.00
2018-08-03T07:30:06.413Z,6620.00
2018-08-03T07:31:05.475Z,6600.00
2018-08-03T07:32:05.988Z,6568.00
2018-08-03T07:33:05.428Z,6548.00
2018-08-03T07:34:05.412Z,6528.00
2018-08-03T07:35:05.409Z,6512.00
2018-08-03T07:36:05.376Z,6496.00
2018-08-03T07:37:05.486Z,6496.00
2018-08-03T07:38:05.383Z,6496.00
2018-08-03T07:39:05.315Z,6504.00
2018-08-03T07:40:06.002Z,6508.00
2018-08-03T07:41:05.288Z,6508.00
2018-08-03T07:42:05.919Z,6484.00
2018-08-03T07:43:05.308Z,6464.00
2018-08-03T07:44:05.920Z,6440.00
2018-08-03T07:45:05.250Z,6432.00
2018-08-03T07:46:05.920Z,6428.00
2018-08-03T07:47:05.168Z,6436.00
2018-08-03T07:48:05.199Z,6448.00
2018-08-03T07:49:05.176Z,6472.00
2018-08-03T07:50:05.113Z,6480.00
2018-08-03T07:51:05.921Z,6480.00
2018-08-03T07:52:05.077Z,6480.00
2018-08-03T07:53:05.057Z,6472.00
2018-08-03T07:54:05.081Z,6456.00
2018-08-03T07:55:05.927Z,6436.00
2018-08-03T07:56:05.017Z,6420.00
2018-08-03T07:57:05.924Z,6412.00
2018-08-03T07:58:05.016Z,6396.00
2018-08-03T07:59:05.481Z,6380.00
2018-08-03T08:00:04.929Z,6372.00
2018-08-03T08:01:05.432Z,6368.00
2018-08-03T08:02:04.898Z,6360.00
2018-08-03T08:03:04.875Z,6348.00
2018-08-03T08:04:04.911Z,6336.00
2018-08-03T08:05:05.429Z,6328.00
2018-08-03T08:06:04.820Z,6320.00
2018-08-03T08:07:05.428Z,6312.00
2018-08-03T08:08:04.784Z,6300.00
2018-08-03T08:09:04.974Z,6284.00
2018-08-03T08:10:04.747Z,6276.00
2018-08-03T08:11:04.724Z,6272.00
2018-08-03T08:12:05.428Z,6280.00
2018-08-03T08:13:04.697Z,6288.00
2018-08-03T08:14:04.989Z,6304.00
2018-08-03T08:15:04.710Z,6312.00
2018-08-03T08:16:05.427Z,6312.00
2018-08-03T08:17:04.695Z,6320.00
2018-08-03T08:18:04.612Z,6328.00
2018-08-03T08:19:04.580Z,6328.00
2018-08-03T08:20:04.984Z,6332.00
2018-08-03T08:21:04.544Z,6344.00
2018-08-03T08:22:05.436Z,6368.00
2018-08-03T08:23:04.555Z,6384.00
2018-08-03T08:24:05.428Z,6400.00
2018-08-03T08:25:04.514Z,6404.00
2018-08-03T08:26:05.045Z,6396.00
2018-08-03T08:27:04.436Z,6376.00
2018-08-03T08:28:04.460Z,6356.00
2018-08-03T08:29:04.934Z,6344.00
2018-08-03T08:30:04.388Z,6320.00
2018-08-03T08:31:04.399Z,6308.00
2018-08-03T08:32:04.351Z,6300.00
2018-08-03T08:33:04.327Z,6300.00
2018-08-03T08:34:04.313Z,6296.00
2018-08-03T08:35:04.293Z,6296.00
2018-08-03T08:36:04.495Z,6280.00
2018-08-03T08:37:04.331Z,6256.00
2018-08-03T08:38:04.240Z,6224.00
2018-08-03T08:39:04.491Z,6192.00
2018-08-03T08:40:04.207Z,6168.00
2018-08-03T08:41:04.937Z,6160.00
2018-08-03T08:42:04.166Z,6148.00
2018-08-03T08:43:04.491Z,6132.00
2018-08-03T08:44:04.130Z,6116.00
2018-08-03T08:45:04.121Z,6104.00
2018-08-03T08:46:04.962Z,6100.00
2018-08-03T08:47:04.095Z,6096.00
2018-08-03T08:48:04.097Z,6092.00
2018-08-03T08:49:04.077Z,6088.00
2018-08-03T08:50:04.024Z,6076.00
2018-08-03T08:51:04.493Z,6052.00
2018-08-03T08:52:03.987Z,6024.00
2018-08-03T08:53:04.941Z,5992.00
2018-08-03T08:54:04.001Z,5964.00
2018-08-03T08:55:04.441Z,5936.00
2018-08-03T08:56:03.918Z,5916.00
2018-08-03T08:57:04.440Z,5904.00
2018-08-03T08:58:03.888Z,5884.00
2018-08-03T08:59:04.013Z,5864.00
2018-08-03T09:00:03.847Z,5852.00
2018-08-03T09:01:04.445Z,5848.00
2018-08-03T09:02:03.830Z,5852.00
2018-08-03T09:03:03.802Z,5856.00
2018-08-03T09:04:03.824Z,5852.00
2018-08-03T09:05:03.807Z,5844.00
2018-08-03T09:06:04.447Z,5844.00
2018-08-03T09:07:03.731Z,5840.00
2018-08-03T09:08:04.452Z,5832.00
2018-08-03T09:09:03.697Z,5828.00
2018-08-03T09:10:04.001Z,5820.00
2018-08-03T09:11:03.663Z,5796.00
2018-08-03T09:12:03.634Z,5776.00
2018-08-03T09:13:04.476Z,5756.00
2018-08-03T09:14:03.646Z,5740.00
2018-08-03T09:15:04.450Z,5728.00
2018-08-03T09:16:03.613Z,5704.00
2018-08-03T09:17:04.447Z,5688.00
2018-08-03T09:18:03.538Z,5688.00
2018-08-03T09:19:03.513Z,5688.00
2018-08-03T09:20:03.546Z,5700.00
2018-08-03T09:21:04.448Z,5708.00
2018-08-03T09:22:03.491Z,5716.00
2018-08-03T09:23:03.962Z,5700.00
2018-08-03T09:24:03.432Z,5684.00
2018-08-03T09:25:03.514Z,5680.00
2018-08-03T09:26:03.391Z,5668.00
2018-08-03T09:27:03.955Z,5660.00
2018-08-03T09:28:03.358Z,5660.00
2018-08-03T09:29:03.517Z,5660.00
2018-08-03T09:30:03.325Z,5668.00
2018-08-03T09:31:03.997Z,5656.00
2018-08-03T09:32:03.291Z,5648.00
2018-08-03T09:33:03.316Z,5652.00
2018-08-03T09:34:03.254Z,5652.00
2018-08-03T09:35:03.240Z,5656.00
2018-08-03T09:36:03.961Z,5648.00
2018-08-03T09:37:03.251Z,5648.00
2018-08-03T09:38:03.954Z,5652.00
2018-08-03T09:39:03.174Z,5648.00
2018-08-03T09:40:03.958Z,5640.00
2018-08-03T09:41:03.135Z,5624.00
2018-08-03T09:42:03.521Z,5596.00
2018-08-03T09:43:03.238Z,5584.00
2018-08-03T09:44:03.973Z,5560.00
2018-08-03T09:45:03.065Z,5552.00
2018-08-03T09:46:03.959Z,5544.00
2018-08-03T09:47:03.092Z,5536.00
2018-08-03T09:48:03.027Z,5528.00
2018-08-03T09:49:03.029Z,5524.00
2018-08-03T09:50:03.975Z,5524.00
2018-08-03T09:51:02.965Z,5516.00
2018-08-03T09:52:03.015Z,5512.00
2018-08-03T09:53:02.933Z,5496.00
2018-08-03T09:54:02.959Z,5484.00
2018-08-03T09:55:03.459Z,5472.00
2018-08-03T09:56:02.903Z,5472.00
2018-08-03T09:57:03.024Z,5468.00
2018-08-03T09:58:02.891Z,5464.00
2018-08-03T09:59:03.465Z,5464.00
2018-08-03T10:00:02.862Z,5464.00
2018-08-03T10:01:03.459Z,5456.00
2018-08-03T10:02:02.792Z,5448.00
2018-08-03T10:03:02.798Z,5444.00
2018-08-03T10:04:02.813Z,5444.00
2018-08-03T10:05:02.727Z,5440.00
2018-08-03T10:06:03.462Z,5424.00
2018-08-03T10:07:02.696Z,5416.00
2018-08-03T10:08:03.464Z,5412.00
2018-08-03T10:09:02.704Z,5408.00
2018-08-03T10:10:03.469Z,5404.00
2018-08-03T10:11:02.631Z,5392.00
2018-08-03T10:12:02.608Z,5380.00
2018-08-03T10:13:03.023Z,5372.00
2018-08-03T10:14:02.580Z,5352.00
2018-08-03T10:15:03.029Z,5340.00
2018-08-03T10:16:02.569Z,5332.00
2018-08-03T10:17:03.477Z,5324.00
2018-08-03T10:18:02.508Z,5320.00
2018-08-03T10:19:02.485Z,5324.00
2018-08-03T10:20:02.523Z,5324.00
2018-08-03T10:21:02.458Z,5332.00
2018-08-03T10:22:02.970Z,5340.00
2018-08-03T10:23:02.419Z,5356.00
2018-08-03T10:24:02.970Z,5376.00
2018-08-03T10:25:02.432Z,5380.00
2018-08-03T10:26:02.972Z,5376.00
2018-08-03T10:27:02.360Z,5380.00
2018-08-03T10:28:02.976Z,5380.00
2018-08-03T10:29:02.363Z,5376.00
2018-08-03T10:30:02.557Z,5384.00
2018-08-03T10:31:02.288Z,5380.00
2018-08-03T10:32:02.996Z,5364.00
2018-08-03T10:33:02.305Z,5356.00
2018-08-03T10:34:02.247Z,5348.00
2018-08-03T10:35:02.229Z,5340.00
2018-08-03T10:36:02.977Z,5336.00
2018-08-03T10:37:02.231Z,5340.00
2018-08-03T10:38:02.991Z,5352.00
2018-08-03T10:39:02.154Z,5352.00
2018-08-03T10:40:02.545Z,5356.00
2018-08-03T10:41:02.124Z,5348.00
2018-08-03T10:42:02.110Z,5344.00
2018-08-03T10:43:02.985Z,5336.00
2018-08-03T10:44:02.071Z,5332.00
2018-08-03T10:45:02.540Z,5324.00
2018-08-03T10:46:02.047Z,5328.00
2018-08-03T10:47:02.538Z,5332.00
2018-08-03T10:48:02.050Z,5340.00
2018-08-03T10:49:02.012Z,5364.00
2018-08-03T10:50:02.050Z,5404.00
2018-08-03T10:51:02.498Z,5432.00
2018-08-03T10:52:01.984Z,5452.00
2018-08-03T10:53:02.483Z,5472.00
2018-08-03T10:54:01.907Z,5480.00
2018-08-03T10:55:02.050Z,5492.00
2018-08-03T10:56:01.889Z,5492.00
2018-08-03T10:57:02.487Z,5492.00
2018-08-03T10:58:01.867Z,5484.00
2018-08-03T10:59:02.486Z,5472.00
2018-08-03T11:00:01.875Z,5456.00
2018-08-03T11:01:02.487Z,5428.00
2018-08-03T11:02:01.774Z,5400.00
2018-08-03T11:03:01.762Z,5384.00
2018-08-03T11:04:01.754Z,5372.00
2018-08-03T11:05:01.776Z,5372.00
2018-08-03T11:06:02.489Z,5380.00
2018-08-03T11:07:01.735Z,5392.00
2018-08-03T11:08:02.496Z,5408.00
2018-08-03T11:09:01.662Z,5400.00
2018-08-03T11:10:02.496Z,5416.00
2018-08-03T11:11:01.648Z,5416.00
2018-08-03T11:12:02.050Z,5416.00
2018-08-03T11:13:01.600Z,5416.00
2018-08-03T11:14:02.500Z,5412.00
2018-08-03T11:15:01.606Z,5404.00
2018-08-03T11:16:02.507Z,5404.00
2018-08-03T11:17:01.529Z,5408.00
2018-08-03T11:18:01.550Z,5408.00
2018-08-03T11:19:01.521Z,5416.00
2018-08-03T11:20:01.493Z,5412.00
2018-08-03T11:21:01.513Z,5396.00
2018-08-03T11:22:01.995Z,5380.00
2018-08-03T11:23:01.448Z,5376.00
2018-08-03T11:24:02.053Z,5384.00
2018-08-03T11:25:01.415Z,5400.00
2018-08-03T11:26:01.610Z,5424.00
2018-08-03T11:27:01.374Z,5452.00
2018-08-03T11:28:01.999Z,5460.00
2018-08-03T11:29:01.337Z,5472.00
2018-08-03T11:30:01.382Z,5464.00
2018-08-03T11:31:02.000Z,5448.00
2018-08-03T11:32:01.290Z,5440.00
2018-08-03T11:33:01.273Z,5432.00
2018-08-03T11:34:01.256Z,5424.00
2018-08-03T11:35:01.320Z,5404.00
2018-08-03T11:36:02.029Z,5384.00
2018-08-03T11:37:01.218Z,5380.00
2018-08-03T11:38:01.258Z,5388.00
2018-08-03T11:39:02.013Z,5400.00
2018-08-03T11:40:01.167Z,5428.00
2018-08-03T11:41:02.001Z,5452.00
2018-08-03T11:42:01.129Z,5468.00
2018-08-03T11:43:01.592Z,5476.00
2018-08-03T11:44:01.096Z,5484.00
2018-08-03T11:45:01.999Z,5504.00
2018-08-03T11:46:01.087Z,5512.00
2018-08-03T11:47:02.008Z,5524.00
2018-08-03T11:48:01.090Z,5528.00
2018-08-03T11:49:01.029Z,5512.00
2018-08-03T11:50:01.048Z,5500.00
2018-08-03T11:51:01.501Z,5484.00
2018-08-03T11:52:00.975Z,5476.00
2018-08-03T11:53:01.504Z,5456.00
2018-08-03T11:54:01.019Z,5444.00
2018-08-03T11:55:00.923Z,5448.00
2018-08-03T11:56:01.503Z,5460.00
2018-08-03T11:57:00.893Z,5472.00
2018-08-03T11:58:01.520Z,5484.00
2018-08-03T11:59:00.905Z,5492.00
2018-08-03T12:00:01.506Z,5500.00
2018-08-03T12:01:00.876Z,5500.00
2018-08-03T12:02:01.535Z,5496.00
2018-08-03T12:03:00.801Z,5484.00
2018-08-03T12:04:00.789Z,5472.00
2018-08-03T12:05:00.770Z,5452.00
2018-08-03T12:06:01.070Z,5428.00
2018-08-03T12:07:00.735Z,5396.00
2018-08-03T12:08:01.514Z,5372.00
2018-08-03T12:09:00.702Z,5356.00
2018-08-03T12:10:01.517Z,5344.00
2018-08-03T12:11:00.743Z,5332.00
2018-08-03T12:12:00.707Z,5332.00
2018-08-03T12:13:01.512Z,5348.00
2018-08-03T12:14:00.674Z,5372.00
2018-08-03T12:15:01.068Z,5396.00
2018-08-03T12:16:00.616Z,5420.00
2018-08-03T12:17:01.512Z,5440.00
2018-08-03T12:18:00.610Z,5460.00
2018-08-03T12:19:00.594Z,5480.00
2018-08-03T12:20:00.572Z,5488.00
2018-08-03T12:21:01.512Z,5492.00
2018-08-03T12:22:00.501Z,5484.00
2018-08-03T12:23:01.016Z,5472.00
2018-08-03T12:24:00.521Z,5448.00